sensor_id;sensor_type;location;lat;lon;timestamp;temperature;humidity
36660;DHT22;22654;51.054;3.654;2023-01-28T00:02:05;4.50;99.90
36660;DHT22;22654;51.054;3.654;2023-01-28T00:04:31;4.50;99.90
36660;DHT22;22654;51.054;3.654;2023-01-28T00:06:57;4.60;99.90
36660;DHT22;22654;51.054;3.654;2023-01-28T00:09:23;4.60;99.90
36660;DHT22;22654;51.054;3.654;2023-01-28T00:11:48;4.80;99.90
36660;DHT22;22654;51.054;3.654;2023-01-28T00:14:14;4.80;99.90
36660;DHT22;22654;51.054;3.654;2023-01-28T00:16:40;4.90;99.90
36660;DHT22;22654;51.054;3.654;2023-01-28T00:19:06;5.00;99.90
36660;DHT22;22654;51.054;3.654;2023-01-28T00:21:33;5.10;99.90
36660;DHT22;22654;51.054;3.654;2023-01-28T00:23:58;5.10;99.90
36660;DHT22;22654;51.054;3.654;2023-01-28T00:26:24;4.90;99.90
36660;DHT22;22654;51.054;3.654;2023-01-28T00:28:50;4.80;99.90
36660;DHT22;22654;51.054;3.654;2023-01-28T00:31:17;4.70;99.90
36660;DHT22;22654;51.054;3.654;2023-01-28T00:33:44;4.60;99.90
36660;DHT22;22654;51.054;3.654;2023-01-28T00:36:11;4.50;99.90
36660;DHT22;22654;51.054;3.654;2023-01-28T00:38:37;4.50;99.90
36660;DHT22;22654;51.054;3.654;2023-01-28T00:41:22;4.60;99.90
36660;DHT22;22654;51.054;3.654;2023-01-28T00:43:49;4.60;99.90
36660;DHT22;22654;51.054;3.654;2023-01-28T00:46:16;4.60;99.90
36660;DHT22;22654;51.054;3.654;2023-01-28T00:48:42;4.40;99.90
36660;DHT22;22654;51.054;3.654;2023-01-28T00:51:08;4.40;99.90
36660;DHT22;22654;51.054;3.654;2023-01-28T00:53:35;4.50;99.90
36660;DHT22;22654;51.054;3.654;2023-01-28T00:56:03;4.50;99.90
36660;DHT22;22654;51.054;3.654;2023-01-28T00:58:31;4.50;99.90
36660;DHT22;22654;51.054;3.654;2023-01-28T01:01:05;4.40;99.90
36660;DHT22;22654;51.054;3.654;2023-01-28T01:03:31;4.50;99.90
36660;DHT22;22654;51.054;3.654;2023-01-28T01:05:56;4.60;99.90
36660;DHT22;22654;51.054;3.654;2023-01-28T01:08:22;4.60;99.90
36660;DHT22;22654;51.054;3.654;2023-01-28T01:11:01;4.60;99.90
36660;DHT22;22654;51.054;3.654;2023-01-28T01:13:27;4.60;99.90
36660;DHT22;22654;51.054;3.654;2023-01-28T01:16:11;4.50;99.90
36660;DHT22;22654;51.054;3.654;2023-01-28T01:18:37;4.40;99.90
36660;DHT22;22654;51.054;3.654;2023-01-28T01:21:09;4.40;99.90
36660;DHT22;22654;51.054;3.654;2023-01-28T01:23:37;4.40;99.90
36660;DHT22;22654;51.054;3.654;2023-01-28T01:26:03;4.40;99.90
36660;DHT22;22654;51.054;3.654;2023-01-28T01:28:29;4.50;99.90
36660;DHT22;22654;51.054;3.654;2023-01-28T01:31:02;4.40;99.90
36660;DHT22;22654;51.054;3.654;2023-01-28T01:33:28;4.40;99.90
36660;DHT22;22654;51.054;3.654;2023-01-28T01:35:54;4.30;99.90
36660;DHT22;22654;51.054;3.654;2023-01-28T01:38:20;4.40;99.90
36660;DHT22;22654;51.054;3.654;2023-01-28T01:40:46;4.40;99.90
36660;DHT22;22654;51.054;3.654;2023-01-28T01:43:15;4.30;99.90
36660;DHT22;22654;51.054;3.654;2023-01-28T01:45:41;4.20;99.90
36660;DHT22;22654;51.054;3.654;2023-01-28T01:48:12;4.10;99.90
36660;DHT22;22654;51.054;3.654;2023-01-28T01:50:46;4.20;99.90
36660;DHT22;22654;51.054;3.654;2023-01-28T01:53:15;4.40;99.90
36660;DHT22;22654;51.054;3.654;2023-01-28T01:55:42;4.40;99.90
36660;DHT22;22654;51.054;3.654;2023-01-28T01:58:11;4.30;99.90
36660;DHT22;22654;51.054;3.654;2023-01-28T02:00:38;4.30;99.90
36660;DHT22;22654;51.054;3.654;2023-01-28T02:03:04;4.40;99.90
36660;DHT22;22654;51.054;3.654;2023-01-28T02:05:29;4.40;99.90
36660;DHT22;22654;51.054;3.654;2023-01-28T02:07:56;4.40;99.90
36660;DHT22;22654;51.054;3.654;2023-01-28T02:10:43;4.30;99.90
36660;DHT22;22654;51.054;3.654;2023-01-28T02:13:09;4.30;99.90
36660;DHT22;22654;51.054;3.654;2023-01-28T02:15:35;4.40;99.90
36660;DHT22;22654;51.054;3.654;2023-01-28T02:18:01;4.40;99.90
36660;DHT22;22654;51.054;3.654;2023-01-28T02:20:47;4.40;99.90
36660;DHT22;22654;51.054;3.654;2023-01-28T02:23:26;4.40;99.90
36660;DHT22;22654;51.054;3.654;2023-01-28T02:31:23;4.50;99.90
36660;DHT22;22654;51.054;3.654;2023-01-28T02:34:10;4.50;99.90
36660;DHT22;22654;51.054;3.654;2023-01-28T02:36:41;4.70;99.90
36660;DHT22;22654;51.054;3.654;2023-01-28T02:39:20;4.50;99.90
36660;DHT22;22654;51.054;3.654;2023-01-28T02:41:50;4.40;99.90
36660;DHT22;22654;51.054;3.654;2023-01-28T02:44:18;4.20;99.90
36660;DHT22;22654;51.054;3.654;2023-01-28T02:46:44;4.20;99.90
36660;DHT22;22654;51.054;3.654;2023-01-28T02:50:02;4.20;99.90
36660;DHT22;22654;51.054;3.654;2023-01-28T03:00:24;4.10;99.90
36660;DHT22;22654;51.054;3.654;2023-01-28T03:02:53;4.00;99.90
36660;DHT22;22654;51.054;3.654;2023-01-28T03:05:26;4.10;99.90
36660;DHT22;22654;51.054;3.654;2023-01-28T03:07:54;4.10;99.90
36660;DHT22;22654;51.054;3.654;2023-01-28T03:10:20;4.20;99.90
36660;DHT22;22654;51.054;3.654;2023-01-28T03:12:48;4.20;99.90
36660;DHT22;22654;51.054;3.654;2023-01-28T03:18:26;4.20;99.90
36660;DHT22;22654;51.054;3.654;2023-01-28T03:21:24;4.20;99.90
36660;DHT22;22654;51.054;3.654;2023-01-28T03:24:10;4.10;99.90
36660;DHT22;22654;51.054;3.654;2023-01-28T03:29:55;4.10;99.90
36660;DHT22;22654;51.054;3.654;2023-01-28T03:32:41;4.20;99.90
36660;DHT22;22654;51.054;3.654;2023-01-28T03:35:27;4.20;99.90
36660;DHT22;22654;51.054;3.654;2023-01-28T03:38:12;4.20;99.90
36660;DHT22;22654;51.054;3.654;2023-01-28T03:40:50;4.00;99.90
36660;DHT22;22654;51.054;3.654;2023-01-28T03:43:17;3.90;99.90
36660;DHT22;22654;51.054;3.654;2023-01-28T03:45:46;3.90;99.90
36660;DHT22;22654;51.054;3.654;2023-01-28T03:48:17;3.90;99.90
36660;DHT22;22654;51.054;3.654;2023-01-28T03:50:43;4.00;99.90
36660;DHT22;22654;51.054;3.654;2023-01-28T03:53:08;4.00;99.90
36660;DHT22;22654;51.054;3.654;2023-01-28T03:55:46;3.90;99.90
36660;DHT22;22654;51.054;3.654;2023-01-28T03:58:13;4.00;99.90
36660;DHT22;22654;51.054;3.654;2023-01-28T04:00:39;3.90;99.90
36660;DHT22;22654;51.054;3.654;2023-01-28T04:03:11;4.00;99.90
36660;DHT22;22654;51.054;3.654;2023-01-28T04:06:04;4.10;99.90
36660;DHT22;22654;51.054;3.654;2023-01-28T04:08:50;4.20;99.90
36660;DHT22;22654;51.054;3.654;2023-01-28T04:11:39;4.30;99.90
36660;DHT22;22654;51.054;3.654;2023-01-28T04:14:06;4.40;99.90
36660;DHT22;22654;51.054;3.654;2023-01-28T04:16:52;4.20;99.90
36660;DHT22;22654;51.054;3.654;2023-01-28T04:19:20;4.10;99.90
36660;DHT22;22654;51.054;3.654;2023-01-28T04:21:46;4.00;99.90
36660;DHT22;22654;51.054;3.654;2023-01-28T04:24:14;4.10;99.90
36660;DHT22;22654;51.054;3.654;2023-01-28T04:26:40;4.10;99.90
36660;DHT22;22654;51.054;3.654;2023-01-28T04:29:06;4.20;99.90
36660;DHT22;22654;51.054;3.654;2023-01-28T04:31:34;4.20;99.90
36660;DHT22;22654;51.054;3.654;2023-01-28T04:34:26;4.10;99.90
36660;DHT22;22654;51.054;3.654;2023-01-28T04:37:21;4.10;99.90
36660;DHT22;22654;51.054;3.654;2023-01-28T04:40:20;4.00;99.90
36660;DHT22;22654;51.054;3.654;2023-01-28T04:42:59;4.10;99.90
36660;DHT22;22654;51.054;3.654;2023-01-28T04:45:45;4.10;99.90
36660;DHT22;22654;51.054;3.654;2023-01-28T04:48:22;4.40;99.90
36660;DHT22;22654;51.054;3.654;2023-01-28T04:51:05;4.00;99.90
36660;DHT22;22654;51.054;3.654;2023-01-28T04:53:47;3.90;99.90
36660;DHT22;22654;51.054;3.654;2023-01-28T04:56:30;3.90;99.90
36660;DHT22;22654;51.054;3.654;2023-01-28T04:58:56;3.90;99.90
36660;DHT22;22654;51.054;3.654;2023-01-28T05:01:22;3.90;99.90
36660;DHT22;22654;51.054;3.654;2023-01-28T05:03:49;3.90;99.90
36660;DHT22;22654;51.054;3.654;2023-01-28T05:06:21;3.80;99.90
36660;DHT22;22654;51.054;3.654;2023-01-28T05:08:49;3.80;99.90
36660;DHT22;22654;51.054;3.654;2023-01-28T05:11:15;3.90;99.90
36660;DHT22;22654;51.054;3.654;2023-01-28T05:13:42;4.00;99.90
36660;DHT22;22654;51.054;3.654;2023-01-28T05:16:11;4.00;99.90
36660;DHT22;22654;51.054;3.654;2023-01-28T05:18:37;4.10;99.90
36660;DHT22;22654;51.054;3.654;2023-01-28T05:21:14;4.20;99.90
36660;DHT22;22654;51.054;3.654;2023-01-28T05:23:42;4.20;99.90
36660;DHT22;22654;51.054;3.654;2023-01-28T05:26:08;4.20;99.90
36660;DHT22;22654;51.054;3.654;2023-01-28T05:28:34;4.30;99.90
36660;DHT22;22654;51.054;3.654;2023-01-28T05:31:04;4.30;99.90
36660;DHT22;22654;51.054;3.654;2023-01-28T05:33:30;4.50;99.90
36660;DHT22;22654;51.054;3.654;2023-01-28T05:35:56;4.60;99.90
36660;DHT22;22654;51.054;3.654;2023-01-28T05:38:22;4.60;99.90
36660;DHT22;22654;51.054;3.654;2023-01-28T05:40:47;4.50;99.90
36660;DHT22;22654;51.054;3.654;2023-01-28T05:43:13;4.60;99.90
36660;DHT22;22654;51.054;3.654;2023-01-28T05:45:53;4.70;99.90
36660;DHT22;22654;51.054;3.654;2023-01-28T05:48:22;4.70;99.90
36660;DHT22;22654;51.054;3.654;2023-01-28T05:50:57;4.70;99.90
36660;DHT22;22654;51.054;3.654;2023-01-28T05:53:32;4.70;99.90
36660;DHT22;22654;51.054;3.654;2023-01-28T05:55:58;4.60;99.90
36660;DHT22;22654;51.054;3.654;2023-01-28T05:58:24;4.70;99.90
36660;DHT22;22654;51.054;3.654;2023-01-28T06:00:53;4.70;99.90
36660;DHT22;22654;51.054;3.654;2023-01-28T06:03:23;4.60;99.90
36660;DHT22;22654;51.054;3.654;2023-01-28T06:05:49;4.60;99.90
36660;DHT22;22654;51.054;3.654;2023-01-28T06:08:15;4.60;99.90
36660;DHT22;22654;51.054;3.654;2023-01-28T06:10:41;4.60;99.90
36660;DHT22;22654;51.054;3.654;2023-01-28T06:13:06;4.70;99.90
36660;DHT22;22654;51.054;3.654;2023-01-28T06:15:53;4.80;99.90
36660;DHT22;22654;51.054;3.654;2023-01-28T06:18:26;4.80;99.90
36660;DHT22;22654;51.054;3.654;2023-01-28T06:20:52;4.70;99.90
36660;DHT22;22654;51.054;3.654;2023-01-28T06:23:18;4.60;99.90
36660;DHT22;22654;51.054;3.654;2023-01-28T06:25:44;4.40;99.90
36660;DHT22;22654;51.054;3.654;2023-01-28T06:28:12;4.30;99.90
36660;DHT22;22654;51.054;3.654;2023-01-28T06:30:38;4.30;99.90
36660;DHT22;22654;51.054;3.654;2023-01-28T06:33:03;4.20;99.90
36660;DHT22;22654;51.054;3.654;2023-01-28T06:35:29;4.20;99.90
36660;DHT22;22654;51.054;3.654;2023-01-28T06:37:55;4.20;99.90
36660;DHT22;22654;51.054;3.654;2023-01-28T06:40:27;4.20;99.90
36660;DHT22;22654;51.054;3.654;2023-01-28T06:42:52;4.20;99.90
36660;DHT22;22654;51.054;3.654;2023-01-28T06:45:18;4.30;99.90
36660;DHT22;22654;51.054;3.654;2023-01-28T06:47:45;4.30;99.90
36660;DHT22;22654;51.054;3.654;2023-01-28T06:50:10;4.40;99.90
36660;DHT22;22654;51.054;3.654;2023-01-28T06:52:36;4.30;99.90
36660;DHT22;22654;51.054;3.654;2023-01-28T06:55:02;4.20;99.90
36660;DHT22;22654;51.054;3.654;2023-01-28T06:57:27;4.20;99.90
36660;DHT22;22654;51.054;3.654;2023-01-28T06:59:53;4.10;99.90
36660;DHT22;22654;51.054;3.654;2023-01-28T07:02:19;3.90;99.90
36660;DHT22;22654;51.054;3.654;2023-01-28T07:04:44;4.10;99.90
36660;DHT22;22654;51.054;3.654;2023-01-28T07:07:10;4.30;99.90
36660;DHT22;22654;51.054;3.654;2023-01-28T07:09:36;4.20;99.90
36660;DHT22;22654;51.054;3.654;2023-01-28T07:12:08;4.00;99.90
36660;DHT22;22654;51.054;3.654;2023-01-28T07:14:34;3.90;99.90
36660;DHT22;22654;51.054;3.654;2023-01-28T07:16:59;3.90;99.90
36660;DHT22;22654;51.054;3.654;2023-01-28T07:19:25;3.80;99.90
36660;DHT22;22654;51.054;3.654;2023-01-28T07:21:51;3.90;99.90
36660;DHT22;22654;51.054;3.654;2023-01-28T07:24:16;4.00;99.90
36660;DHT22;22654;51.054;3.654;2023-01-28T07:26:42;4.10;99.90
36660;DHT22;22654;51.054;3.654;2023-01-28T07:29:08;4.00;99.90
36660;DHT22;22654;51.054;3.654;2023-01-28T07:31:34;3.90;99.90
36660;DHT22;22654;51.054;3.654;2023-01-28T07:33:59;3.90;99.90
36660;DHT22;22654;51.054;3.654;2023-01-28T07:36:25;3.90;99.90
36660;DHT22;22654;51.054;3.654;2023-01-28T07:38:51;4.00;99.90
36660;DHT22;22654;51.054;3.654;2023-01-28T07:41:17;3.90;99.90
36660;DHT22;22654;51.054;3.654;2023-01-28T07:43:43;3.90;99.90
36660;DHT22;22654;51.054;3.654;2023-01-28T07:46:09;3.80;99.90
36660;DHT22;22654;51.054;3.654;2023-01-28T07:48:34;3.90;99.90
36660;DHT22;22654;51.054;3.654;2023-01-28T07:51:00;3.90;99.90
36660;DHT22;22654;51.054;3.654;2023-01-28T07:53:26;3.90;99.90
36660;DHT22;22654;51.054;3.654;2023-01-28T07:55:56;3.80;99.90
36660;DHT22;22654;51.054;3.654;2023-01-28T07:58:22;3.90;99.90
36660;DHT22;22654;51.054;3.654;2023-01-28T08:00:48;3.80;99.90
36660;DHT22;22654;51.054;3.654;2023-01-28T08:03:14;3.80;99.90
36660;DHT22;22654;51.054;3.654;2023-01-28T08:05:44;3.80;99.90
36660;DHT22;22654;51.054;3.654;2023-01-28T08:08:11;3.80;99.90
36660;DHT22;22654;51.054;3.654;2023-01-28T08:10:37;3.80;99.90
36660;DHT22;22654;51.054;3.654;2023-01-28T08:13:03;3.80;99.90
36660;DHT22;22654;51.054;3.654;2023-01-28T08:15:29;3.70;99.90
36660;DHT22;22654;51.054;3.654;2023-01-28T08:17:56;3.80;99.90
36660;DHT22;22654;51.054;3.654;2023-01-28T08:20:23;3.80;99.90
36660;DHT22;22654;51.054;3.654;2023-01-28T08:22:49;3.80;99.90
36660;DHT22;22654;51.054;3.654;2023-01-28T08:25:15;3.80;99.90
36660;DHT22;22654;51.054;3.654;2023-01-28T08:27:41;3.90;99.90
36660;DHT22;22654;51.054;3.654;2023-01-28T08:30:07;4.00;99.90
36660;DHT22;22654;51.054;3.654;2023-01-28T08:32:34;4.10;99.90
36660;DHT22;22654;51.054;3.654;2023-01-28T08:35:00;4.00;99.90
36660;DHT22;22654;51.054;3.654;2023-01-28T08:37:25;3.90;99.90
36660;DHT22;22654;51.054;3.654;2023-01-28T08:39:51;3.90;99.90
36660;DHT22;22654;51.054;3.654;2023-01-28T08:42:17;4.00;99.90
36660;DHT22;22654;51.054;3.654;2023-01-28T08:44:43;4.10;99.90
36660;DHT22;22654;51.054;3.654;2023-01-28T08:47:08;4.20;99.90
36660;DHT22;22654;51.054;3.654;2023-01-28T08:49:34;4.10;99.90
36660;DHT22;22654;51.054;3.654;2023-01-28T08:52:00;4.10;99.90
36660;DHT22;22654;51.054;3.654;2023-01-28T08:54:26;4.10;99.90
36660;DHT22;22654;51.054;3.654;2023-01-28T08:56:52;4.20;99.90
36660;DHT22;22654;51.054;3.654;2023-01-28T08:59:18;4.20;99.90
36660;DHT22;22654;51.054;3.654;2023-01-28T09:01:44;4.30;99.90
36660;DHT22;22654;51.054;3.654;2023-01-28T09:04:10;4.30;99.90
36660;DHT22;22654;51.054;3.654;2023-01-28T09:06:36;4.50;99.90
36660;DHT22;22654;51.054;3.654;2023-01-28T09:09:02;4.50;99.90
36660;DHT22;22654;51.054;3.654;2023-01-28T09:11:28;4.50;99.90
36660;DHT22;22654;51.054;3.654;2023-01-28T09:13:56;4.50;99.90
36660;DHT22;22654;51.054;3.654;2023-01-28T09:16:21;4.40;99.90
36660;DHT22;22654;51.054;3.654;2023-01-28T09:18:48;4.30;99.90
36660;DHT22;22654;51.054;3.654;2023-01-28T09:21:13;4.30;99.90
36660;DHT22;22654;51.054;3.654;2023-01-28T09:23:39;4.40;99.90
36660;DHT22;22654;51.054;3.654;2023-01-28T09:26:05;4.40;99.90
36660;DHT22;22654;51.054;3.654;2023-01-28T09:28:31;4.40;99.90
36660;DHT22;22654;51.054;3.654;2023-01-28T09:31:06;4.40;99.90
36660;DHT22;22654;51.054;3.654;2023-01-28T09:33:32;4.70;99.90
36660;DHT22;22654;51.054;3.654;2023-01-28T09:35:58;4.90;99.90
36660;DHT22;22654;51.054;3.654;2023-01-28T09:38:24;4.90;99.90
36660;DHT22;22654;51.054;3.654;2023-01-28T09:40:50;4.80;99.90
36660;DHT22;22654;51.054;3.654;2023-01-28T09:45:47;4.80;99.90
36660;DHT22;22654;51.054;3.654;2023-01-28T09:48:18;5.00;99.90
36660;DHT22;22654;51.054;3.654;2023-01-28T09:50:52;5.00;99.90
36660;DHT22;22654;51.054;3.654;2023-01-28T09:53:27;5.10;99.90
36660;DHT22;22654;51.054;3.654;2023-01-28T09:56:03;5.30;99.90
36660;DHT22;22654;51.054;3.654;2023-01-28T09:58:30;5.30;99.90
36660;DHT22;22654;51.054;3.654;2023-01-28T10:19:24;4.70;99.90
36660;DHT22;22654;51.054;3.654;2023-01-28T10:21:49;4.90;99.90
36660;DHT22;22654;51.054;3.654;2023-01-28T10:24:17;4.90;99.90
36660;DHT22;22654;51.054;3.654;2023-01-28T10:26:45;4.90;99.90
36660;DHT22;22654;51.054;3.654;2023-01-28T10:29:44;4.70;99.90
36660;DHT22;22654;51.054;3.654;2023-01-28T10:32:05;4.70;99.90
36660;DHT22;22654;51.054;3.654;2023-01-28T10:34:37;4.70;99.90
36660;DHT22;22654;51.054;3.654;2023-01-28T10:37:03;4.90;99.90
36660;DHT22;22654;51.054;3.654;2023-01-28T10:39:29;5.20;99.90
36660;DHT22;22654;51.054;3.654;2023-01-28T10:41:55;5.30;99.90
36660;DHT22;22654;51.054;3.654;2023-01-28T10:44:25;5.40;99.90
36660;DHT22;22654;51.054;3.654;2023-01-28T10:46:52;5.20;99.90
36660;DHT22;22654;51.054;3.654;2023-01-28T10:49:20;5.30;99.90
36660;DHT22;22654;51.054;3.654;2023-01-28T10:51:47;5.20;99.90
36660;DHT22;22654;51.054;3.654;2023-01-28T10:54:25;4.90;99.90
36660;DHT22;22654;51.054;3.654;2023-01-28T10:56:55;5.00;99.90
36660;DHT22;22654;51.054;3.654;2023-01-28T11:01:49;5.40;99.90
36660;DHT22;22654;51.054;3.654;2023-01-28T11:04:27;5.30;99.90
36660;DHT22;22654;51.054;3.654;2023-01-28T11:06:55;5.10;99.90
36660;DHT22;22654;51.054;3.654;2023-01-28T11:09:25;5.20;99.90
36660;DHT22;22654;51.054;3.654;2023-01-28T11:11:51;5.20;99.90
36660;DHT22;22654;51.054;3.654;2023-01-28T11:14:20;5.30;99.90
36660;DHT22;22654;51.054;3.654;2023-01-28T11:16:46;5.30;99.90
36660;DHT22;22654;51.054;3.654;2023-01-28T11:19:12;5.30;99.90
36660;DHT22;22654;51.054;3.654;2023-01-28T11:21:38;5.40;99.90
36660;DHT22;22654;51.054;3.654;2023-01-28T11:24:13;5.20;99.90
36660;DHT22;22654;51.054;3.654;2023-01-28T11:26:47;5.10;99.90
36660;DHT22;22654;51.054;3.654;2023-01-28T11:29:24;5.40;99.90
36660;DHT22;22654;51.054;3.654;2023-01-28T11:31:51;5.70;99.90
36660;DHT22;22654;51.054;3.654;2023-01-28T11:34:17;5.80;99.90
36660;DHT22;22654;51.054;3.654;2023-01-28T11:36:50;5.70;99.90
36660;DHT22;22654;51.054;3.654;2023-01-28T11:39:19;5.70;99.90
36660;DHT22;22654;51.054;3.654;2023-01-28T11:41:45;5.80;99.90
36660;DHT22;22654;51.054;3.654;2023-01-28T11:49:12;6.10;99.90
36660;DHT22;22654;51.054;3.654;2023-01-28T11:51:41;6.00;99.90
36660;DHT22;22654;51.054;3.654;2023-01-28T12:12:25;5.70;99.90
36660;DHT22;22654;51.054;3.654;2023-01-28T12:17:37;5.20;99.90
36660;DHT22;22654;51.054;3.654;2023-01-28T12:20:17;5.10;99.90
36660;DHT22;22654;51.054;3.654;2023-01-28T12:38:11;5.40;99.90
36660;DHT22;22654;51.054;3.654;2023-01-28T12:43:13;5.60;99.90
36660;DHT22;22654;51.054;3.654;2023-01-28T12:45:50;5.70;99.90
36660;DHT22;22654;51.054;3.654;2023-01-28T12:48:28;5.80;99.90
36660;DHT22;22654;51.054;3.654;2023-01-28T12:53:28;5.80;99.90
36660;DHT22;22654;51.054;3.654;2023-01-28T12:58:34;5.80;99.90
36660;DHT22;22654;51.054;3.654;2023-01-28T13:01:03;5.90;99.90
36660;DHT22;22654;51.054;3.654;2023-01-28T13:03:33;6.00;99.90
36660;DHT22;22654;51.054;3.654;2023-01-28T13:06:43;6.10;99.90
36660;DHT22;22654;51.054;3.654;2023-01-28T13:08:48;6.30;99.90
36660;DHT22;22654;51.054;3.654;2023-01-28T13:11:14;6.30;99.90
36660;DHT22;22654;51.054;3.654;2023-01-28T13:13:41;6.10;99.90
36660;DHT22;22654;51.054;3.654;2023-01-28T13:16:09;5.80;99.90
36660;DHT22;22654;51.054;3.654;2023-01-28T13:23:49;5.90;99.90
36660;DHT22;22654;51.054;3.654;2023-01-28T13:28:47;6.30;99.90
36660;DHT22;22654;51.054;3.654;2023-01-28T13:31:14;6.40;99.90
36660;DHT22;22654;51.054;3.654;2023-01-28T13:33:48;6.70;99.90
36660;DHT22;22654;51.054;3.654;2023-01-28T13:36:26;6.90;99.90
36660;DHT22;22654;51.054;3.654;2023-01-28T13:44:02;6.30;99.90
36660;DHT22;22654;51.054;3.654;2023-01-28T13:46:28;6.40;99.90
36660;DHT22;22654;51.054;3.654;2023-01-28T13:48:55;6.50;99.90
36660;DHT22;22654;51.054;3.654;2023-01-28T13:51:23;6.70;99.90
36660;DHT22;22654;51.054;3.654;2023-01-28T13:56:54;6.10;99.90
36660;DHT22;22654;51.054;3.654;2023-01-28T13:59:30;6.10;99.90
36660;DHT22;22654;51.054;3.654;2023-01-28T14:15:02;6.00;99.90
36660;DHT22;22654;51.054;3.654;2023-01-28T14:20:09;6.20;99.90
36660;DHT22;22654;51.054;3.654;2023-01-28T14:22:40;6.00;99.90
36660;DHT22;22654;51.054;3.654;2023-01-28T14:25:10;6.00;99.90
36660;DHT22;22654;51.054;3.654;2023-01-28T14:27:37;5.90;99.90
36660;DHT22;22654;51.054;3.654;2023-01-28T14:32:32;6.20;99.90
36660;DHT22;22654;51.054;3.654;2023-01-28T14:34:59;6.20;99.90
36660;DHT22;22654;51.054;3.654;2023-01-28T14:37:30;6.40;99.90
36660;DHT22;22654;51.054;3.654;2023-01-28T14:40:01;6.60;99.90
36660;DHT22;22654;51.054;3.654;2023-01-28T14:42:29;6.50;99.90
36660;DHT22;22654;51.054;3.654;2023-01-28T14:47:28;6.40;99.90
36660;DHT22;22654;51.054;3.654;2023-01-28T14:49:59;6.50;99.90
36660;DHT22;22654;51.054;3.654;2023-01-28T14:55:22;6.50;99.90
36660;DHT22;22654;51.054;3.654;2023-01-28T14:57:54;6.30;99.90
36660;DHT22;22654;51.054;3.654;2023-01-28T15:00:22;6.30;99.90
36660;DHT22;22654;51.054;3.654;2023-01-28T15:02:48;6.40;99.90
36660;DHT22;22654;51.054;3.654;2023-01-28T15:05:18;6.40;99.90
36660;DHT22;22654;51.054;3.654;2023-01-28T15:07:46;6.30;99.90
36660;DHT22;22654;51.054;3.654;2023-01-28T15:10:20;6.00;99.90
36660;DHT22;22654;51.054;3.654;2023-01-28T15:12:56;5.70;99.90
36660;DHT22;22654;51.054;3.654;2023-01-28T15:15:24;5.60;99.90
36660;DHT22;22654;51.054;3.654;2023-01-28T15:17:52;5.60;99.90
36660;DHT22;22654;51.054;3.654;2023-01-28T15:20:19;5.60;99.90
36660;DHT22;22654;51.054;3.654;2023-01-28T15:22:45;5.60;99.90
36660;DHT22;22654;51.054;3.654;2023-01-28T15:25:15;5.70;99.90
36660;DHT22;22654;51.054;3.654;2023-01-28T15:27:41;5.60;99.90
36660;DHT22;22654;51.054;3.654;2023-01-28T15:30:20;5.70;99.90
36660;DHT22;22654;51.054;3.654;2023-01-28T15:32:55;5.70;99.90
36660;DHT22;22654;51.054;3.654;2023-01-28T15:35:21;5.60;99.90
36660;DHT22;22654;51.054;3.654;2023-01-28T15:37:46;5.60;99.90
36660;DHT22;22654;51.054;3.654;2023-01-28T15:40:18;5.70;99.90
36660;DHT22;22654;51.054;3.654;2023-01-28T15:42:46;6.00;99.90
36660;DHT22;22654;51.054;3.654;2023-01-28T15:45:15;6.10;99.90
36660;DHT22;22654;51.054;3.654;2023-01-28T15:47:42;6.10;99.90
36660;DHT22;22654;51.054;3.654;2023-01-28T15:50:08;6.00;99.90
36660;DHT22;22654;51.054;3.654;2023-01-28T15:52:39;5.90;99.90
36660;DHT22;22654;51.054;3.654;2023-01-28T15:55:06;5.90;99.90
36660;DHT22;22654;51.054;3.654;2023-01-28T15:57:33;5.80;99.90
36660;DHT22;22654;51.054;3.654;2023-01-28T16:02:43;5.80;99.90
36660;DHT22;22654;51.054;3.654;2023-01-28T16:05:26;5.60;99.90
36660;DHT22;22654;51.054;3.654;2023-01-28T16:07:52;5.40;99.90
36660;DHT22;22654;51.054;3.654;2023-01-28T16:10:22;5.30;99.90
36660;DHT22;22654;51.054;3.654;2023-01-28T16:12:50;5.40;99.90
36660;DHT22;22654;51.054;3.654;2023-01-28T16:15:20;5.60;99.90
36660;DHT22;22654;51.054;3.654;2023-01-28T16:17:47;5.50;99.90
36660;DHT22;22654;51.054;3.654;2023-01-28T16:20:21;5.40;99.90
36660;DHT22;22654;51.054;3.654;2023-01-28T16:22:47;5.40;99.90
36660;DHT22;22654;51.054;3.654;2023-01-28T16:25:26;5.30;99.90
36660;DHT22;22654;51.054;3.654;2023-01-28T16:27:53;5.30;99.90
36660;DHT22;22654;51.054;3.654;2023-01-28T16:30:19;5.20;99.90
36660;DHT22;22654;51.054;3.654;2023-01-28T16:32:45;5.10;99.90
36660;DHT22;22654;51.054;3.654;2023-01-28T16:35:14;5.20;99.90
36660;DHT22;22654;51.054;3.654;2023-01-28T16:37:45;5.20;99.90
36660;DHT22;22654;51.054;3.654;2023-01-28T16:40:11;5.20;99.90
36660;DHT22;22654;51.054;3.654;2023-01-28T16:42:38;5.00;99.90
36660;DHT22;22654;51.054;3.654;2023-01-28T16:45:04;5.10;99.90
36660;DHT22;22654;51.054;3.654;2023-01-28T16:47:30;5.20;99.90
36660;DHT22;22654;51.054;3.654;2023-01-28T16:49:56;5.10;99.90
36660;DHT22;22654;51.054;3.654;2023-01-28T16:52:21;5.20;99.90
36660;DHT22;22654;51.054;3.654;2023-01-28T16:54:47;5.30;99.90
36660;DHT22;22654;51.054;3.654;2023-01-28T16:57:13;5.20;99.90
36660;DHT22;22654;51.054;3.654;2023-01-28T16:59:41;5.20;99.90
36660;DHT22;22654;51.054;3.654;2023-01-28T17:02:16;5.20;99.90
36660;DHT22;22654;51.054;3.654;2023-01-28T17:04:42;4.80;99.90
36660;DHT22;22654;51.054;3.654;2023-01-28T17:07:08;4.30;99.90
36660;DHT22;22654;51.054;3.654;2023-01-28T17:09:34;4.30;99.90
36660;DHT22;22654;51.054;3.654;2023-01-28T17:12:03;4.20;99.90
36660;DHT22;22654;51.054;3.654;2023-01-28T17:14:29;4.40;99.90
36660;DHT22;22654;51.054;3.654;2023-01-28T17:16:54;4.40;99.90
36660;DHT22;22654;51.054;3.654;2023-01-28T17:19:20;4.00;99.90
36660;DHT22;22654;51.054;3.654;2023-01-28T17:21:46;3.70;99.90
36660;DHT22;22654;51.054;3.654;2023-01-28T17:24:12;3.40;99.90
36660;DHT22;22654;51.054;3.654;2023-01-28T17:26:37;3.20;99.90
36660;DHT22;22654;51.054;3.654;2023-01-28T17:29:04;2.90;99.90
36660;DHT22;22654;51.054;3.654;2023-01-28T17:31:30;2.90;99.90
36660;DHT22;22654;51.054;3.654;2023-01-28T17:33:56;2.90;99.90
36660;DHT22;22654;51.054;3.654;2023-01-28T17:36:23;3.20;99.90
36660;DHT22;22654;51.054;3.654;2023-01-28T17:38:49;3.20;99.90
36660;DHT22;22654;51.054;3.654;2023-01-28T17:41:15;3.10;99.90
36660;DHT22;22654;51.054;3.654;2023-01-28T17:43:53;3.00;99.90
36660;DHT22;22654;51.054;3.654;2023-01-28T17:46:20;2.90;99.90
36660;DHT22;22654;51.054;3.654;2023-01-28T17:48:46;2.80;99.90
36660;DHT22;22654;51.054;3.654;2023-01-28T17:51:12;2.70;99.90
36660;DHT22;22654;51.054;3.654;2023-01-28T17:53:38;2.90;99.90
36660;DHT22;22654;51.054;3.654;2023-01-28T17:56:04;3.00;99.90
36660;DHT22;22654;51.054;3.654;2023-01-28T17:58:30;2.80;99.90
36660;DHT22;22654;51.054;3.654;2023-01-28T18:00:56;2.70;99.90
36660;DHT22;22654;51.054;3.654;2023-01-28T18:03:21;2.50;99.90
36660;DHT22;22654;51.054;3.654;2023-01-28T18:05:57;2.40;99.90
36660;DHT22;22654;51.054;3.654;2023-01-28T18:08:23;2.60;99.90
36660;DHT22;22654;51.054;3.654;2023-01-28T18:10:49;2.40;99.90
36660;DHT22;22654;51.054;3.654;2023-01-28T18:13:15;2.20;99.90